Time;durP1;ratioP1;P1;durP2;ratioP2;P2;SDS_P1;SDS_P2;PMS_P1;PMS_P2;Temp;Humidity;BMP_temperature;BMP_pressure;BME280_temperature;BME280_humidity;BME280_pressure;Samples;Min_cycle;Max_cycle;Signal;HPM_P1;HPM_P2
2024/01/03 00:00:29;;;;;;;28.63;6.38;;;;;;;9.02;100.00;97479.47;5007612;28;20404;-71
2024/01/03 00:02:56;;;;;;;25.55;5.57;;;;;;;8.81;100.00;97474.22;5008098;28;20065;-71
2024/01/03 00:05:29;;;;;;;21.45;4.20;;;;;;;8.95;100.00;97480.94;5004176;28;20382;-71
2024/01/03 00:07:56;;;;;;;27.48;5.28;;;;;;;8.96;100.00;97477.34;5010148;28;20050;-71
2024/01/03 00:10:51;;;;;;;23.00;4.10;;;;;;;8.99;100.00;97477.91;4993902;28;20061;-71
2024/01/03 00:13:33;;;;;;;22.60;5.00;;;;;;;8.98;100.00;97478.88;4981787;28;20046;-72
2024/01/03 00:16:00;;;;;;;24.40;4.82;;;;;;;8.82;100.00;97475.88;4998065;28;20050;-72
2024/01/03 00:18:49;;;;;;;25.25;5.65;;;;;;;8.99;100.00;97474.50;4993765;28;20058;-71
2024/01/03 00:21:25;;;;;;;49.35;6.65;;;;;;;8.78;100.00;97467.47;5008559;28;20073;-72
2024/01/03 00:23:58;;;;;;;20.58;4.20;;;;;;;8.85;100.00;97468.66;5009539;28;20054;-71
2024/01/03 00:26:27;;;;;;;21.50;4.35;;;;;;;8.80;100.00;97468.19;5001748;28;20050;-71
2024/01/03 00:28:55;;;;;;;22.52;5.68;;;;;;;8.80;100.00;97472.56;5002457;28;20050;-72
2024/01/03 00:31:41;;;;;;;20.42;4.63;;;;;;;8.80;100.00;97481.25;5005996;28;20061;-71
2024/01/03 00:34:25;;;;;;;23.98;4.70;;;;;;;8.78;100.00;97483.13;5008773;28;20080;-71
2024/01/03 00:36:55;;;;;;;29.13;6.15;;;;;;;8.78;100.00;97480.50;4989452;28;20166;-71
2024/01/03 00:39:40;;;;;;;28.38;4.82;;;;;;;9.01;100.00;97483.88;5004642;28;20100;-70
2024/01/03 00:42:07;;;;;;;18.10;5.68;;;;;;;8.91;100.00;97469.91;4992763;28;20057;-71
2024/01/03 00:44:33;;;;;;;22.58;5.45;;;;;;;8.82;100.00;97470.66;4993864;28;20164;-70
2024/01/03 00:47:01;;;;;;;22.75;5.70;;;;;;;8.70;100.00;97472.50;5001625;28;20412;-70
2024/01/03 00:49:28;;;;;;;21.13;5.07;;;;;;;8.78;100.00;97488.34;4991379;28;20120;-70
2024/01/03 00:51:56;;;;;;;28.15;6.80;;;;;;;8.78;100.00;97483.13;5005455;28;20143;-70
2024/01/03 00:54:24;;;;;;;22.55;4.63;;;;;;;8.84;100.00;97484.44;5002593;28;20060;-71
2024/01/03 00:56:52;;;;;;;27.00;4.90;;;;;;;8.80;100.00;97494.28;5012680;28;20054;-71
2024/01/03 00:59:19;;;;;;;21.17;5.00;;;;;;;9.01;100.00;97496.91;4999513;28;20423;-71
2024/01/03 01:01:47;;;;;;;37.03;7.20;;;;;;;8.91;100.00;97496.00;5010929;28;20054;-71
2024/01/03 01:04:15;;;;;;;28.80;8.27;;;;;;;8.80;100.00;97486.47;4991497;28;20481;-71
2024/01/03 01:06:42;;;;;;;30.45;6.53;;;;;;;8.85;100.00;97486.91;5001199;28;20052;-71
2024/01/03 01:09:09;;;;;;;16.48;5.60;;;;;;;8.86;100.00;97488.56;5009036;28;20046;-71
2024/01/03 01:11:36;;;;;;;28.55;5.82;;;;;;;8.85;100.00;97494.75;4998209;28;20119;-71
2024/01/03 01:14:03;;;;;;;27.52;5.63;;;;;;;8.80;100.00;97496.91;4991474;28;20141;-71
2024/01/03 01:16:29;;;;;;;29.50;6.10;;;;;;;8.62;100.00;97493.97;5008934;28;20637;-71
2024/01/03 01:18:56;;;;;;;24.50;5.30;;;;;;;8.61;100.00;97500.16;5008717;28;20056;-71
2024/01/03 01:21:23;;;;;;;24.75;5.10;;;;;;;8.67;100.00;97502.25;5008384;28;20491;-71
2024/01/03 01:23:49;;;;;;;25.88;7.95;;;;;;;8.59;100.00;97491.66;5009156;28;20527;-71
2024/01/03 01:26:16;;;;;;;29.58;5.85;;;;;;;8.58;100.00;97503.00;5008287;28;20747;-71
2024/01/03 01:28:43;;;;;;;26.70;4.75;;;;;;;8.66;100.00;97510.25;5008826;28;20105;-71
2024/01/03 01:31:10;;;;;;;24.13;5.57;;;;;;;8.58;100.00;97516.06;5003681;28;20056;-71
2024/01/03 01:33:36;;;;;;;20.38;4.47;;;;;;;8.64;100.00;97523.41;5006864;28;20042;-71
2024/01/03 01:36:03;;;;;;;24.98;5.43;;;;;;;8.53;100.00;97526.03;4989722;28;20406;-71
2024/01/03 01:38:30;;;;;;;23.00;5.85;;;;;;;8.43;100.00;97525.09;5002651;28;20089;-71
2024/01/03 01:40:57;;;;;;;24.23;4.97;;;;;;;8.72;100.00;97525.38;4994040;28;20049;-70
2024/01/03 01:43:23;;;;;;;21.42;5.93;;;;;;;8.69;100.00;97538.66;5006785;28;20061;-71
2024/01/03 01:45:51;;;;;;;23.10;5.70;;;;;;;8.67;100.00;97533.56;5008922;28;20479;-71
2024/01/03 01:48:20;;;;;;;40.17;7.38;;;;;;;8.51;100.00;97546.19;5000425;28;21206;-71
2024/01/03 01:50:47;;;;;;;31.73;6.60;;;;;;;8.57;100.00;97530.06;5009480;28;20104;-71
2024/01/03 01:53:14;;;;;;;30.95;6.13;;;;;;;8.60;100.00;97544.63;5006974;28;20225;-71
2024/01/03 01:55:41;;;;;;;27.83;6.13;;;;;;;8.61;100.00;97554.13;5009031;28;20050;-71
2024/01/03 01:58:08;;;;;;;18.58;5.10;;;;;;;8.69;100.00;97556.91;5001983;28;20065;-71
2024/01/03 02:00:38;;;;;;;23.52;5.25;;;;;;;8.66;100.00;97559.78;5019559;28;20045;-71
2024/01/03 02:03:07;;;;;;;28.63;5.88;;;;;;;8.64;100.00;97567.72;5014509;28;20125;-71
2024/01/03 02:05:37;;;;;;;24.80;5.47;;;;;;;8.58;100.00;97562.19;5028590;28;20065;-71
2024/01/03 02:08:08;;;;;;;31.30;6.47;;;;;;;8.66;100.00;97578.88;5014131;28;20057;-71
2024/01/03 02:10:36;;;;;;;32.42;7.03;;;;;;;8.64;100.00;97577.31;5005401;28;20115;-71
2024/01/03 02:13:03;;;;;;;31.40;6.97;;;;;;;8.72;100.00;97580.16;5013955;28;20133;-71
2024/01/03 02:15:30;;;;;;;33.70;5.75;;;;;;;8.52;100.00;97579.16;5010875;28;20161;-71
2024/01/03 02:17:58;;;;;;;21.60;4.85;;;;;;;8.77;100.00;97580.63;5030205;28;20053;-71
2024/01/03 02:20:30;;;;;;;36.72;8.18;;;;;;;8.74;100.00;97578.25;4992664;28;20642;-71
2024/01/03 02:22:57;;;;;;;20.83;4.40;;;;;;;8.69;100.00;97578.63;5024210;28;20091;-71
2024/01/03 02:25:23;;;;;;;30.02;6.57;;;;;;;8.59;100.00;97571.63;4994756;28;20050;-71
2024/01/03 02:27:50;;;;;;;21.52;4.75;;;;;;;8.72;100.00;97593.19;5028105;28;20042;-71
2024/01/03 02:30:17;;;;;;;41.72;8.00;;;;;;;8.57;100.00;97582.22;5003654;28;20058;-71
2024/01/03 02:32:43;;;;;;;24.08;4.90;;;;;;;8.86;100.00;97587.69;5021060;28;20050;-70
2024/01/03 02:35:10;;;;;;;29.60;5.32;;;;;;;8.72;100.00;97591.41;5011469;28;20073;-71
2024/01/03 02:37:37;;;;;;;28.73;5.35;;;;;;;8.66;100.00;97591.91;5005909;28;20157;-70
2024/01/03 02:40:04;;;;;;;23.90;6.68;;;;;;;8.63;100.00;97591.31;5025346;28;20550;-70
2024/01/03 02:42:31;;;;;;;34.05;6.03;;;;;;;8.71;100.00;97600.19;5020807;28;20050;-71
2024/01/03 02:44:57;;;;;;;21.30;5.05;;;;;;;8.78;100.00;97595.28;5020273;28;20045;-70
2024/01/03 02:47:24;;;;;;;30.35;6.53;;;;;;;8.78;100.00;97597.09;5002561;28;20045;-70
2024/01/03 02:49:57;;;;;;;31.77;6.35;;;;;;;8.68;100.00;97591.78;5011447;28;20129;-70
2024/01/03 02:52:25;;;;;;;21.80;5.22;;;;;;;8.88;100.00;97592.78;5011054;28;20108;-70
2024/01/03 02:54:52;;;;;;;31.55;7.82;;;;;;;8.77;100.00;97606.69;5019803;28;20052;-70
2024/01/03 02:57:19;;;;;;;26.77;5.90;;;;;;;8.74;100.00;97599.09;4992278;28;20434;-70
2024/01/03 02:59:45;;;;;;;24.38;5.38;;;;;;;8.95;100.00;97611.41;5013390;28;20057;-70
2024/01/03 03:02:12;;;;;;;35.92;7.63;;;;;;;8.88;100.00;97604.03;5003244;28;21095;-70
2024/01/03 03:04:39;;;;;;;33.80;8.27;;;;;;;8.63;100.00;97593.94;5008289;28;20053;-69
2024/01/03 03:07:06;;;;;;;34.67;7.30;;;;;;;8.77;100.00;97603.28;5006597;28;20061;-70
2024/01/03 03:09:32;;;;;;;42.38;7.30;;;;;;;8.82;100.00;97603.69;5005311;28;20472;-69
2024/01/03 03:11:59;;;;;;;27.73;5.93;;;;;;;8.50;100.00;97597.53;4995630;28;20392;-70
2024/01/03 03:14:26;;;;;;;25.45;4.78;;;;;;;8.48;100.00;97603.78;5004661;28;20049;-70
2024/01/03 03:16:52;;;;;;;18.95;5.38;;;;;;;8.44;100.00;97602.38;4991141;28;20062;-70
2024/01/03 03:19:19;;;;;;;21.77;4.47;;;;;;;8.27;100.00;97601.06;5010331;28;20054;-70
2024/01/03 03:21:46;;;;;;;21.60;4.07;;;;;;;8.27;100.00;97614.09;5004656;28;20054;-70
2024/01/03 03:24:13;;;;;;;29.30;5.35;;;;;;;8.18;100.00;97610.44;5001390;28;20054;-70
2024/01/03 03:26:39;;;;;;;26.65;4.57;;;;;;;8.08;100.00;97606.88;5011217;28;20056;-70
2024/01/03 03:29:06;;;;;;;23.23;4.72;;;;;;;8.07;100.00;97616.47;5003441;28;20058;-70
2024/01/03 03:31:33;;;;;;;27.35;5.65;;;;;;;7.84;100.00;97620.81;5003511;28;20086;-69
2024/01/03 03:34:00;;;;;;;18.77;4.38;;;;;;;7.95;100.00;97620.84;4995542;28;20496;-70
2024/01/03 03:36:27;;;;;;;27.35;6.22;;;;;;;7.68;100.00;97630.75;4991587;28;20542;-70
2024/01/03 03:38:54;;;;;;;23.42;4.53;;;;;;;7.72;100.00;97637.38;5004928;28;20476;-71
2024/01/03 03:41:23;;;;;;;30.88;4.93;;;;;;;7.75;100.00;97635.38;5001668;28;20455;-71
2024/01/03 03:43:50;;;;;;;25.45;5.35;;;;;;;7.68;100.00;97639.38;5009966;28;20070;-71
2024/01/03 03:46:17;;;;;;;24.55;5.43;;;;;;;7.75;100.00;97647.56;5000583;28;20050;-71
2024/01/03 03:48:44;;;;;;;27.80;6.90;;;;;;;7.71;100.00;97673.03;5010779;28;20089;-71
2024/01/03 03:51:11;;;;;;;33.95;6.07;;;;;;;7.49;100.00;97673.81;5007077;28;20085;-70
2024/01/03 03:53:38;;;;;;;23.67;4.65;;;;;;;7.53;100.00;97672.63;4990934;28;20054;-71
2024/01/03 03:56:05;;;;;;;19.85;3.72;;;;;;;7.62;100.00;97670.28;4988557;28;20057;-71
2024/01/03 03:58:31;;;;;;;24.15;5.72;;;;;;;7.55;100.00;97677.72;5010903;28;20136;-70
2024/01/03 04:00:58;;;;;;;38.97;5.93;;;;;;;7.49;100.00;97672.94;5002779;28;20063;-70
2024/01/03 04:03:25;;;;;;;18.35;4.07;;;;;;;7.23;100.00;97683.50;5016651;28;20463;-70
2024/01/03 04:05:51;;;;;;;28.88;5.10;;;;;;;7.28;100.00;97702.22;5017415;28;20041;-71
2024/01/03 04:08:18;;;;;;;28.88;5.75;;;;;;;7.45;100.00;97707.97;5017358;28;20054;-71
2024/01/03 04:10:45;;;;;;;24.42;4.82;;;;;;;7.43;100.00;97705.47;5003109;28;20093;-70
2024/01/03 04:13:12;;;;;;;28.35;6.88;;;;;;;7.23;100.00;97712.97;5025911;28;20053;-71
2024/01/03 04:15:38;;;;;;;23.25;4.93;;;;;;;7.28;100.00;97738.66;5025702;28;20056;-71
2024/01/03 04:18:05;;;;;;;30.90;5.15;;;;;;;7.45;100.00;97741.81;5010271;28;20526;-71
2024/01/03 04:20:32;;;;;;;29.73;5.90;;;;;;;7.37;100.00;97731.97;4995373;28;20133;-71
2024/01/03 04:22:59;;;;;;;28.75;5.43;;;;;;;7.15;100.00;97767.34;4997598;28;20479;-71
2024/01/03 04:25:26;;;;;;;26.80;5.70;;;;;;;7.07;100.00;97754.03;5007763;28;20046;-70
2024/01/03 04:27:53;;;;;;;19.83;4.63;;;;;;;7.10;100.00;97765.97;5009123;28;20052;-71
2024/01/03 04:30:19;;;;;;;19.98;5.10;;;;;;;7.13;100.00;97752.75;5008002;28;20341;-71
2024/01/03 04:32:46;;;;;;;22.80;5.10;;;;;;;7.32;100.00;97749.69;4998755;28;20102;-71
2024/01/03 04:35:13;;;;;;;25.58;4.45;;;;;;;7.10;100.00;97763.38;5004593;28;20116;-71
2024/01/03 04:37:40;;;;;;;26.67;5.05;;;;;;;7.10;100.00;97760.78;4995016;28;20058;-71
2024/01/03 04:40:08;;;;;;;23.50;5.00;;;;;;;7.04;100.00;97757.66;5012234;28;20065;-71
2024/01/03 04:42:35;;;;;;;23.48;5.35;;;;;;;6.99;100.00;97772.78;5009583;28;20049;-71
2024/01/03 04:45:03;;;;;;;30.27;4.90;;;;;;;7.15;100.00;97772.53;5019777;28;20049;-71
2024/01/03 04:47:32;;;;;;;21.88;5.28;;;;;;;7.15;100.00;97766.47;5019592;28;20048;-71
2024/01/03 04:49:59;;;;;;;24.80;4.32;;;;;;;7.12;100.00;97764.94;5008201;28;20142;-71
2024/01/03 04:52:26;;;;;;;21.63;4.80;;;;;;;7.15;100.00;97779.50;5007323;28;20049;-71
2024/01/03 04:54:52;;;;;;;22.52;4.78;;;;;;;6.98;100.00;97765.91;4997262;28;20057;-71
2024/01/03 04:57:19;;;;;;;23.15;4.28;;;;;;;7.01;100.00;97772.66;4992568;28;20054;-72
2024/01/03 04:59:46;;;;;;;27.88;4.68;;;;;;;7.07;100.00;97777.44;5015647;28;20103;-72
2024/01/03 05:02:13;;;;;;;36.13;5.32;;;;;;;6.99;100.00;97775.41;5009914;28;20046;-71
2024/01/03 05:04:40;;;;;;;27.25;5.18;;;;;;;6.98;100.00;97778.91;5008697;28;20118;-72
2024/01/03 05:07:06;;;;;;;32.45;6.35;;;;;;;6.89;100.00;97779.56;5027721;28;20049;-71
2024/01/03 05:09:34;;;;;;;24.45;5.22;;;;;;;6.82;100.00;97781.75;5018339;28;20419;-71
2024/01/03 05:12:02;;;;;;;29.35;5.78;;;;;;;6.92;100.00;97787.13;5014458;28;20080;-71
2024/01/03 05:14:31;;;;;;;24.85;4.45;;;;;;;6.95;100.00;97805.13;5002673;28;20050;-71
2024/01/03 05:16:58;;;;;;;26.50;5.10;;;;;;;6.94;100.00;97795.69;5008275;28;20056;-71
2024/01/03 05:19:25;;;;;;;22.75;4.85;;;;;;;6.99;100.00;97785.78;5017216;28;20140;-71
2024/01/03 05:21:52;;;;;;;32.58;7.15;;;;;;;7.00;100.00;97795.25;4989528;28;20050;-71
2024/01/03 05:24:19;;;;;;;21.90;5.88;;;;;;;7.07;100.00;97803.47;5016024;28;20049;-71
2024/01/03 05:26:46;;;;;;;26.27;5.82;;;;;;;6.98;100.00;97809.31;4995034;28;20082;-71
2024/01/03 05:29:13;;;;;;;22.73;4.50;;;;;;;6.88;100.00;97779.66;5003832;28;20057;-71
2024/01/03 05:31:40;;;;;;;19.83;5.40;;;;;;;6.90;100.00;97798.59;5013238;28;20080;-71
2024/01/03 05:34:08;;;;;;;31.63;7.03;;;;;;;7.08;100.00;97796.47;5009874;28;20144;-71
2024/01/03 05:36:36;;;;;;;26.98;5.75;;;;;;;7.03;100.00;97805.44;5026411;28;20521;-71
2024/01/03 05:39:03;;;;;;;21.83;4.72;;;;;;;6.90;100.00;97812.44;5016159;28;20518;-71
2024/01/03 05:41:30;;;;;;;32.25;5.95;;;;;;;6.79;100.00;97805.38;5019458;28;20065;-71
2024/01/03 05:43:56;;;;;;;29.23;6.80;;;;;;;6.97;100.00;97820.66;5000116;28;20058;-70
2024/01/03 05:46:24;;;;;;;22.08;4.32;;;;;;;6.80;100.00;97821.81;5006262;28;20415;-71
2024/01/03 05:48:50;;;;;;;21.77;4.80;;;;;;;6.76;100.00;97817.75;5008230;28;20074;-71
2024/01/03 05:51:18;;;;;;;23.42;7.65;;;;;;;6.76;100.00;97810.78;5003268;28;20120;-72
2024/01/03 05:53:47;;;;;;;22.48;4.75;;;;;;;6.89;100.00;97826.38;5024937;28;20089;-71
2024/01/03 05:56:15;;;;;;;27.02;4.28;;;;;;;6.86;100.00;97799.75;4992382;28;20054;-71
2024/01/03 05:58:43;;;;;;;23.15;5.07;;;;;;;6.90;100.00;97822.00;5002815;28;20495;-70
2024/01/03 06:01:10;;;;;;;29.45;5.18;;;;;;;7.06;100.00;97819.19;5019237;28;20460;-71
2024/01/03 06:03:37;;;;;;;21.52;5.30;;;;;;;6.91;100.00;97819.31;5018459;28;20081;-71
2024/01/03 06:06:04;;;;;;;38.75;6.90;;;;;;;6.93;100.00;97814.00;5027883;28;20095;-71
2024/01/03 06:08:32;;;;;;;33.28;5.70;;;;;;;6.94;100.00;97826.91;5027201;28;20049;-71
2024/01/03 06:10:58;;;;;;;27.02;5.63;;;;;;;6.93;100.00;97822.63;5011108;28;20531;-71
2024/01/03 06:13:25;;;;;;;24.42;4.75;;;;;;;7.04;100.00;97817.50;5028978;28;20107;-71
2024/01/03 06:15:52;;;;;;;25.85;5.78;;;;;;;6.91;100.00;97800.28;5024570;28;20088;-71
2024/01/03 06:18:19;;;;;;;22.92;5.28;;;;;;;7.00;100.00;97791.81;5031524;28;20194;-72
2024/01/03 06:20:46;;;;;;;20.08;3.67;;;;;;;6.93;100.00;97817.41;5020424;28;20085;-71
2024/01/03 06:23:12;;;;;;;20.10;4.43;;;;;;;6.80;100.00;97790.63;5007115;28;20076;-72
2024/01/03 06:25:39;;;;;;;25.42;4.43;;;;;;;6.89;100.00;97815.97;5003521;28;20145;-71
2024/01/03 06:28:06;;;;;;;29.80;5.53;;;;;;;6.86;100.00;97810.97;5011144;28;20054;-71
2024/01/03 06:30:35;;;;;;;21.35;4.68;;;;;;;6.96;100.00;97819.81;5009181;28;20053;-71
2024/01/03 06:33:01;;;;;;;32.65;5.40;;;;;;;6.92;100.00;97813.16;5013959;28;20567;-71
2024/01/03 06:35:30;;;;;;;22.65;4.47;;;;;;;6.87;100.00;97780.59;5001229;28;20045;-71
2024/01/03 06:37:56;;;;;;;22.63;5.53;;;;;;;6.72;100.00;97816.31;5006568;28;20104;-71
2024/01/03 06:40:23;;;;;;;28.10;5.55;;;;;;;6.81;100.00;97813.06;5000212;28;20049;-71
2024/01/03 06:42:50;;;;;;;19.40;4.20;;;;;;;6.88;100.00;97827.31;5017147;28;20050;-70
2024/01/03 06:45:16;;;;;;;20.23;5.57;;;;;;;6.63;100.00;97823.78;5006582;28;20050;-70
2024/01/03 06:47:43;;;;;;;21.65;4.60;;;;;;;6.75;100.00;97814.31;5014591;28;20088;-71
2024/01/03 06:50:10;;;;;;;19.17;4.22;;;;;;;6.59;100.00;97831.91;5026194;28;20053;-70
2024/01/03 06:52:37;;;;;;;19.30;3.85;;;;;;;6.82;100.00;97845.94;5021847;28;20050;-71
2024/01/03 06:55:04;;;;;;;20.38;3.83;;;;;;;6.41;100.00;97857.34;5006046;28;20401;-70
2024/01/03 06:57:31;;;;;;;19.38;4.40;;;;;;;6.55;100.00;97848.63;5020243;28;20057;-70
2024/01/03 06:59:57;;;;;;;16.05;2.83;;;;;;;6.45;100.00;97845.84;5010344;28;20050;-70
2024/01/03 07:02:25;;;;;;;20.48;3.92;;;;;;;6.50;100.00;97861.97;5009590;28;20046;-70
2024/01/03 07:04:52;;;;;;;15.90;3.67;;;;;;;6.56;100.00;97863.31;4986556;28;20408;-71
2024/01/03 07:07:19;;;;;;;23.20;5.57;;;;;;;6.51;100.00;97862.78;5010881;28;20111;-71
2024/01/03 07:09:45;;;;;;;24.15;5.75;;;;;;;6.47;100.00;97882.94;5021378;28;20077;-71
2024/01/03 07:12:16;;;;;;;24.80;4.43;;;;;;;6.53;100.00;97899.91;4991118;28;20068;-70
2024/01/03 07:14:43;;;;;;;24.25;6.18;;;;;;;6.21;100.00;97889.84;5022269;28;20049;-71
2024/01/03 07:17:10;;;;;;;17.88;3.67;;;;;;;6.35;100.00;97896.75;5028659;28;20132;-71
2024/01/03 07:19:36;;;;;;;35.90;5.63;;;;;;;6.12;100.00;97875.69;5012011;28;20611;-71
2024/01/03 07:22:03;;;;;;;21.65;4.22;;;;;;;6.38;100.00;97909.56;5017613;28;20073;-71
2024/01/03 07:24:30;;;;;;;24.55;4.07;;;;;;;6.25;100.00;97892.16;5005858;28;20347;-72
2024/01/03 07:26:56;;;;;;;18.38;3.55;;;;;;;6.35;100.00;97910.56;5030007;28;20049;-72
2024/01/03 07:29:23;;;;;;;17.08;3.35;;;;;;;6.34;100.00;97911.53;5017733;28;20049;-71
2024/01/03 07:31:50;;;;;;;15.95;3.72;;;;;;;6.16;100.00;97912.69;5009087;28;20054;-71
2024/01/03 07:34:18;;;;;;;47.38;6.18;;;;;;;6.13;100.00;97921.53;5012677;28;20068;-71
2024/01/03 07:36:45;;;;;;;18.67;5.22;;;;;;;6.17;100.00;97916.97;5026145;28;20463;-71
2024/01/03 07:39:11;;;;;;;21.80;4.38;;;;;;;6.24;100.00;97936.44;5016256;28;20132;-69
2024/01/03 07:41:42;;;;;;;15.55;3.00;;;;;;;5.91;100.00;97901.25;5005300;28;20412;-71
2024/01/03 07:44:09;;;;;;;27.95;5.38;;;;;;;6.25;100.00;97946.72;5025152;28;20053;-71
2024/01/03 07:46:36;;;;;;;17.65;3.95;;;;;;;6.14;100.00;97911.97;5022199;28;20517;-71
2024/01/03 07:49:02;;;;;;;20.88;4.47;;;;;;;6.10;100.00;97952.06;5024007;28;20061;-71
2024/01/03 07:51:29;;;;;;;21.65;3.42;;;;;;;6.04;100.00;97943.75;5017102;28;20145;-72
2024/01/03 07:53:56;;;;;;;18.00;4.22;;;;;;;6.34;100.00;97944.44;4996571;28;20137;-71
2024/01/03 07:56:23;;;;;;;15.18;3.30;;;;;;;6.18;100.00;97953.25;5002170;28;20406;-71
2024/01/03 07:58:50;;;;;;;16.98;3.63;;;;;;;6.35;100.00;97952.16;5002054;28;20056;-71
2024/01/03 08:01:19;;;;;;;19.95;4.07;;;;;;;6.17;100.00;97945.56;5021356;28;20046;-71
2024/01/03 08:03:46;;;;;;;21.25;3.88;;;;;;;6.21;100.00;97957.41;5006234;28;20428;-71
2024/01/03 08:06:23;;;;;;;22.55;4.90;;;;;;;6.25;100.00;97970.13;5014139;28;20038;-71
2024/01/03 08:19:19;;;;;;;14.95;2.80;;;;;;;6.01;100.00;97930.13;5089759;27;20397;-71
2024/01/03 08:21:46;;;;;;;16.63;4.90;;;;;;;5.80;100.00;97937.47;5085507;28;20080;-70
2024/01/03 08:24:13;;;;;;;15.85;3.97;;;;;;;5.87;100.00;97944.75;5085279;28;20106;-71
2024/01/03 08:26:40;;;;;;;13.18;2.80;;;;;;;5.81;100.00;97967.72;5086807;28;20299;-71
2024/01/03 08:29:07;;;;;;;20.30;3.47;;;;;;;5.99;100.00;97970.94;5089142;28;20492;-71
2024/01/03 08:31:33;;;;;;;16.35;3.35;;;;;;;6.03;100.00;97975.00;5083366;28;20055;-71
2024/01/03 08:34:00;;;;;;;16.17;3.25;;;;;;;6.06;100.00;97985.22;5084930;28;20131;-71
2024/01/03 08:36:42;;;;;;;12.43;2.85;;;;;;;5.93;100.00;97987.69;5085532;28;20052;-71
2024/01/03 08:39:09;;;;;;;22.25;4.32;;;;;;;6.01;100.00;98008.03;5086918;28;20516;-71
2024/01/03 08:41:36;;;;;;;15.20;3.58;;;;;;;6.00;100.00;97998.56;5077819;28;20059;-70
2024/01/03 08:44:05;;;;;;;19.23;3.67;;;;;;;6.05;100.00;98002.53;5079879;28;20051;-70
2024/01/03 08:46:41;;;;;;;17.38;3.80;;;;;;;6.22;100.00;98021.44;5085558;28;20535;-70
2024/01/03 08:49:09;;;;;;;12.45;3.25;;;;;;;5.99;100.00;98000.34;5082293;28;20085;-71
2024/01/03 08:51:36;;;;;;;17.10;3.53;;;;;;;6.20;100.00;98015.50;5082811;28;20051;-71
2024/01/03 08:54:03;;;;;;;14.63;2.92;;;;;;;5.96;100.00;98007.47;5091592;28;20048;-70
2024/01/03 08:56:30;;;;;;;22.35;3.80;;;;;;;5.94;100.00;98025.72;5085068;28;20433;-71
2024/01/03 08:58:57;;;;;;;21.25;3.53;;;;;;;6.12;100.00;98023.78;5077199;28;20066;-71
2024/01/03 09:01:24;;;;;;;21.27;3.55;;;;;;;6.17;100.00;98021.72;5081096;28;20082;-71
2024/01/03 09:03:51;;;;;;;19.33;4.22;;;;;;;6.23;100.00;98023.09;5070676;28;20517;-71
2024/01/03 09:06:20;;;;;;;14.15;3.15;;;;;;;6.05;100.00;98012.09;5075294;28;20052;-71
2024/01/03 09:08:50;;;;;;;17.27;3.33;;;;;;;6.21;100.00;98030.16;5081296;28;20472;-71
2024/01/03 09:11:19;;;;;;;12.90;3.05;;;;;;;6.01;100.00;98027.03;5078705;28;20075;-71
2024/01/03 09:13:49;;;;;;;18.20;2.95;;;;;;;6.10;100.00;98024.81;5070803;28;20064;-71
2024/01/03 09:16:20;;;;;;;23.05;3.40;;;;;;;6.17;100.00;98032.13;5073587;28;20052;-71
2024/01/03 09:18:47;;;;;;;11.18;2.75;;;;;;;5.87;100.00;98040.00;5082787;28;20511;-71
2024/01/03 09:21:15;;;;;;;17.20;2.72;;;;;;;5.95;100.00;98036.94;5066214;28;20049;-72
2024/01/03 09:23:42;;;;;;;19.95;3.47;;;;;;;5.90;100.00;98048.44;5068004;28;20114;-72
2024/01/03 09:26:10;;;;;;;17.55;2.95;;;;;;;6.15;100.00;98052.16;5069745;28;20090;-71
2024/01/03 09:28:38;;;;;;;16.60;4.78;;;;;;;6.06;100.00;98044.94;5067204;28;20044;-71
2024/01/03 09:31:05;;;;;;;18.13;3.17;;;;;;;5.89;100.00;98057.16;5063884;28;20463;-74
2024/01/03 09:33:32;;;;;;;17.25;3.83;;;;;;;5.89;100.00;98062.34;5081930;28;20052;-72
2024/01/03 09:35:59;;;;;;;17.23;4.18;;;;;;;6.20;100.00;98073.50;5067978;28;20063;-72
2024/01/03 09:38:26;;;;;;;19.33;3.20;;;;;;;5.98;100.00;98065.34;5057696;28;20132;-73
2024/01/03 09:40:53;;;;;;;20.35;3.25;;;;;;;5.89;100.00;98064.13;5068682;28;20490;-73
2024/01/03 09:43:20;;;;;;;22.65;4.70;;;;;;;6.16;100.00;98084.16;5060151;28;20044;-73
2024/01/03 09:45:48;;;;;;;19.48;4.35;;;;;;;6.33;100.00;98089.16;5057596;28;20048;-73
2024/01/03 09:48:15;;;;;;;25.67;3.70;;;;;;;6.23;100.00;98082.84;5055161;28;20045;-74
2024/01/03 09:50:44;;;;;;;22.15;3.67;;;;;;;6.20;100.00;98054.50;5059185;28;20048;-74
2024/01/03 09:53:14;;;;;;;18.25;3.60;;;;;;;6.32;100.00;98074.50;5058181;28;20049;-74
2024/01/03 09:55:40;;;;;;;17.02;3.55;;;;;;;6.22;100.00;98078.59;5051009;28;20667;-73
2024/01/03 09:58:07;;;;;;;27.38;4.75;;;;;;;6.24;100.00;98084.53;5060327;28;20040;-73
2024/01/03 10:00:34;;;;;;;15.75;3.00;;;;;;;6.16;100.00;98077.22;5063061;28;20102;-74
2024/01/03 10:03:07;;;;;;;16.38;3.88;;;;;;;6.25;100.00;98070.59;5050214;28;20053;-73
2024/01/03 10:05:35;;;;;;;17.42;2.95;;;;;;;6.03;100.00;98079.72;5057050;28;20059;-73
2024/01/03 10:08:28;;;;;;;16.65;3.67;;;;;;;6.31;100.00;98080.63;5054663;28;20452;-74
2024/01/03 10:10:55;;;;;;;20.73;3.53;;;;;;;6.26;100.00;98078.31;5064599;28;20785;-74
2024/01/03 10:13:24;;;;;;;15.18;3.03;;;;;;;6.09;100.00;98083.69;5066337;28;20280;-74
2024/01/03 10:15:50;;;;;;;21.00;3.83;;;;;;;6.22;100.00;98089.00;5058262;28;20131;-74
2024/01/03 10:18:18;;;;;;;17.35;3.35;;;;;;;5.95;100.00;98094.06;5062856;28;20139;-74
2024/01/03 10:20:49;;;;;;;19.48;3.25;;;;;;;6.04;100.00;98086.59;5061908;28;20049;-74
2024/01/03 10:23:19;;;;;;;13.63;2.25;;;;;;;6.14;100.00;98104.22;5068898;28;20425;-74
2024/01/03 10:25:46;;;;;;;13.45;2.60;;;;;;;5.96;100.00;98088.81;5064724;28;20106;-74
2024/01/03 10:28:16;;;;;;;11.82;3.33;;;;;;;6.10;100.00;98097.56;5077091;28;20068;-74
2024/01/03 10:30:51;;;;;;;23.35;5.57;;;;;;;6.12;100.00;98095.69;5066466;28;20080;-74
2024/01/03 10:33:18;;;;;;;17.45;3.80;;;;;;;6.05;100.00;98090.03;5059162;28;20056;-74
2024/01/03 10:35:46;;;;;;;12.93;3.05;;;;;;;6.27;100.00;98105.97;5064254;28;20068;-74
2024/01/03 10:38:15;;;;;;;17.92;3.63;;;;;;;6.13;100.00;98103.38;5062069;28;20375;-73
2024/01/03 10:40:44;;;;;;;15.00;3.05;;;;;;;6.25;100.00;98102.63;5064766;28;20049;-73
2024/01/03 10:43:11;;;;;;;21.10;4.55;;;;;;;6.04;100.00;98109.97;5063713;28;20398;-73
2024/01/03 10:45:37;;;;;;;13.07;3.08;;;;;;;6.08;100.00;98102.84;5063042;28;20390;-73
2024/01/03 10:48:05;;;;;;;13.32;3.05;;;;;;;5.97;100.00;98105.25;5060222;28;20060;-73
2024/01/03 10:50:34;;;;;;;14.23;2.65;;;;;;;6.02;100.00;98117.03;5054046;28;20048;-74
2024/01/03 10:53:08;;;;;;;16.20;3.40;;;;;;;6.21;100.00;98121.91;5058542;28;20057;-74
2024/01/03 10:55:39;;;;;;;20.50;4.57;;;;;;;6.14;100.00;98125.00;5052940;28;20053;-74
2024/01/03 10:58:13;;;;;;;22.05;3.22;;;;;;;6.05;100.00;98118.59;5062684;28;20051;-74
2024/01/03 11:00:59;;;;;;;15.75;2.65;;;;;;;6.22;100.00;98134.00;5062898;28;20477;-74
2024/01/03 11:03:36;;;;;;;12.18;2.45;;;;;;;6.21;100.00;98115.91;5052240;28;20547;-74
2024/01/03 11:06:23;;;;;;;16.70;3.28;;;;;;;5.89;100.00;98129.88;5061464;28;20549;-74
2024/01/03 11:08:55;;;;;;;17.23;2.60;;;;;;;6.07;100.00;98129.72;5059369;28;20049;-74
2024/01/03 11:11:33;;;;;;;12.57;2.10;;;;;;;5.95;100.00;98120.91;5057219;28;20091;-74
2024/01/03 11:14:01;;;;;;;13.30;2.95;;;;;;;6.16;100.00;98128.34;5057275;28;20132;-74
2024/01/03 11:16:38;;;;;;;12.63;2.65;;;;;;;6.14;100.00;98140.59;5063034;28;20170;-74
2024/01/03 11:19:07;;;;;;;13.57;2.38;;;;;;;6.05;100.00;98124.63;5064908;28;20044;-72
2024/01/03 11:21:37;;;;;;;12.88;2.63;;;;;;;5.98;100.00;98131.13;5059379;28;20379;-73
2024/01/03 11:24:09;;;;;;;13.75;2.97;;;;;;;6.18;100.00;98134.28;5054692;28;20059;-73
2024/01/03 11:29:48;;;;;;;13.82;3.00;;;;;;;6.31;100.00;98134.38;5068893;28;20134;-73
2024/01/03 11:32:28;;;;;;;;;;;;;;;6.00;100.00;98131.88;5062274;28;20368;-73
2024/01/03 11:34:57;;;;;;;13.25;2.72;;;;;;;5.94;100.00;98121.00;5054449;28;19920;-73
2024/01/03 11:37:24;;;;;;;14.00;2.50;;;;;;;6.25;100.00;98131.22;5056122;28;20072;-73
2024/01/03 11:39:53;;;;;;;15.43;3.00;;;;;;;6.11;100.00;98123.44;5067755;28;20381;-73
2024/01/03 11:42:21;;;;;;;10.27;2.35;;;;;;;5.77;100.00;98137.56;5065278;28;20049;-73